sensor_id;sensor_type;location;lat;lon;timestamp;P1;durP1;ratioP1;P2;durP2;ratioP2
53269;SDS011;39159;45.634;9.420;2023-05-16T00:00:51;10.77;;;9.07;;
53269;SDS011;39159;45.634;9.420;2023-05-16T00:03:17;11.95;;;9.00;;
53269;SDS011;39159;45.634;9.420;2023-05-16T00:05:43;13.32;;;9.40;;
53269;SDS011;39159;45.634;9.420;2023-05-16T00:08:10;11.10;;;9.32;;
53269;SDS011;39159;45.634;9.420;2023-05-16T00:10:35;12.10;;;9.10;;
53269;SDS011;39159;45.634;9.420;2023-05-16T00:13:01;11.05;;;8.90;;
53269;SDS011;39159;45.634;9.420;2023-05-16T00:15:27;12.23;;;9.10;;
53269;SDS011;39159;45.634;9.420;2023-05-16T00:17:54;11.77;;;9.45;;
53269;SDS011;39159;45.634;9.420;2023-05-16T00:20:26;11.65;;;8.93;;
53269;SDS011;39159;45.634;9.420;2023-05-16T00:22:52;11.23;;;9.27;;
53269;SDS011;39159;45.634;9.420;2023-05-16T00:25:19;11.38;;;9.32;;
53269;SDS011;39159;45.634;9.420;2023-05-16T00:27:45;11.88;;;9.02;;
53269;SDS011;39159;45.634;9.420;2023-05-16T00:30:11;13.65;;;9.98;;
53269;SDS011;39159;45.634;9.420;2023-05-16T00:32:37;11.90;;;8.85;;
53269;SDS011;39159;45.634;9.420;2023-05-16T00:35:02;9.82;;;8.80;;
53269;SDS011;39159;45.634;9.420;2023-05-16T00:37:28;11.93;;;9.50;;
53269;SDS011;39159;45.634;9.420;2023-05-16T00:39:54;11.60;;;8.50;;
53269;SDS011;39159;45.634;9.420;2023-05-16T00:42:20;11.60;;;8.63;;
53269;SDS011;39159;45.634;9.420;2023-05-16T00:44:46;12.95;;;8.73;;
53269;SDS011;39159;45.634;9.420;2023-05-16T00:47:12;12.55;;;8.52;;
53269;SDS011;39159;45.634;9.420;2023-05-16T00:49:38;10.10;;;8.30;;
53269;SDS011;39159;45.634;9.420;2023-05-16T00:52:04;12.10;;;8.32;;
53269;SDS011;39159;45.634;9.420;2023-05-16T00:54:30;11.25;;;8.80;;
53269;SDS011;39159;45.634;9.420;2023-05-16T00:56:55;15.40;;;8.25;;
53269;SDS011;39159;45.634;9.420;2023-05-16T00:59:22;10.90;;;7.85;;
53269;SDS011;39159;45.634;9.420;2023-05-16T01:01:48;12.95;;;8.63;;
53269;SDS011;39159;45.634;9.420;2023-05-16T01:04:14;10.30;;;8.43;;
53269;SDS011;39159;45.634;9.420;2023-05-16T01:06:41;13.57;;;8.68;;
53269;SDS011;39159;45.634;9.420;2023-05-16T01:09:07;11.20;;;7.38;;
53269;SDS011;39159;45.634;9.420;2023-05-16T01:14:25;11.40;;;7.43;;
53269;SDS011;39159;45.634;9.420;2023-05-16T01:28:02;10.80;;;7.50;;
53269;SDS011;39159;45.634;9.420;2023-05-16T01:30:33;9.63;;;7.80;;
53269;SDS011;39159;45.634;9.420;2023-05-16T01:33:00;10.90;;;7.90;;
53269;SDS011;39159;45.634;9.420;2023-05-16T01:35:25;8.80;;;7.60;;
53269;SDS011;39159;45.634;9.420;2023-05-16T01:37:55;12.95;;;8.10;;
53269;SDS011;39159;45.634;9.420;2023-05-16T01:43:07;9.75;;;7.78;;
53269;SDS011;39159;45.634;9.420;2023-05-16T01:45:38;8.77;;;7.50;;
53269;SDS011;39159;45.634;9.420;2023-05-16T01:48:10;10.88;;;7.28;;
53269;SDS011;39159;45.634;9.420;2023-05-16T01:50:47;9.98;;;7.05;;
53269;SDS011;39159;45.634;9.420;2023-05-16T01:53:19;10.85;;;7.10;;
53269;SDS011;39159;45.634;9.420;2023-05-16T01:55:56;9.57;;;7.40;;
53269;SDS011;39159;45.634;9.420;2023-05-16T01:58:25;11.10;;;7.20;;
53269;SDS011;39159;45.634;9.420;2023-05-16T02:00:58;13.20;;;8.10;;
53269;SDS011;39159;45.634;9.420;2023-05-16T02:03:26;10.75;;;7.85;;
53269;SDS011;39159;45.634;9.420;2023-05-16T02:05:52;10.65;;;7.75;;
53269;SDS011;39159;45.634;9.420;2023-05-16T02:08:17;11.48;;;8.27;;
53269;SDS011;39159;45.634;9.420;2023-05-16T02:10:43;14.77;;;9.00;;
53269;SDS011;39159;45.634;9.420;2023-05-16T02:13:08;12.45;;;8.90;;
53269;SDS011;39159;45.634;9.420;2023-05-16T02:15:34;10.18;;;7.82;;
53269;SDS011;39159;45.634;9.420;2023-05-16T02:18:00;12.15;;;8.93;;
53269;SDS011;39159;45.634;9.420;2023-05-16T02:20:25;9.93;;;8.20;;
53269;SDS011;39159;45.634;9.420;2023-05-16T02:22:51;12.23;;;8.27;;
53269;SDS011;39159;45.634;9.420;2023-05-16T02:25:16;11.90;;;8.00;;
53269;SDS011;39159;45.634;9.420;2023-05-16T02:27:42;10.77;;;7.97;;
53269;SDS011;39159;45.634;9.420;2023-05-16T02:30:08;9.77;;;8.30;;
53269;SDS011;39159;45.634;9.420;2023-05-16T02:32:36;11.95;;;7.82;;
53269;SDS011;39159;45.634;9.420;2023-05-16T02:35:05;9.40;;;7.35;;
53269;SDS011;39159;45.634;9.420;2023-05-16T02:37:31;12.10;;;8.15;;
53269;SDS011;39159;45.634;9.420;2023-05-16T02:39:57;10.55;;;7.43;;
53269;SDS011;39159;45.634;9.420;2023-05-16T02:42:24;8.48;;;7.25;;
53269;SDS011;39159;45.634;9.420;2023-05-16T02:44:51;10.18;;;7.07;;
53269;SDS011;39159;45.634;9.420;2023-05-16T02:47:16;8.10;;;6.90;;
53269;SDS011;39159;45.634;9.420;2023-05-16T02:49:42;8.50;;;6.50;;
53269;SDS011;39159;45.634;9.420;2023-05-16T02:52:07;10.85;;;7.40;;
53269;SDS011;39159;45.634;9.420;2023-05-16T02:54:33;8.27;;;6.65;;
53269;SDS011;39159;45.634;9.420;2023-05-16T02:56:59;10.43;;;6.88;;
53269;SDS011;39159;45.634;9.420;2023-05-16T02:59:24;14.07;;;7.03;;
53269;SDS011;39159;45.634;9.420;2023-05-16T03:01:50;7.85;;;6.60;;
53269;SDS011;39159;45.634;9.420;2023-05-16T03:04:16;8.35;;;6.50;;
53269;SDS011;39159;45.634;9.420;2023-05-16T03:06:42;11.75;;;7.53;;
53269;SDS011;39159;45.634;9.420;2023-05-16T03:09:07;7.53;;;6.32;;
53269;SDS011;39159;45.634;9.420;2023-05-16T03:11:33;8.25;;;5.47;;
53269;SDS011;39159;45.634;9.420;2023-05-16T03:13:58;9.40;;;6.22;;
53269;SDS011;39159;45.634;9.420;2023-05-16T03:16:24;7.85;;;5.60;;
53269;SDS011;39159;45.634;9.420;2023-05-16T03:18:50;7.35;;;5.18;;
53269;SDS011;39159;45.634;9.420;2023-05-16T03:21:15;5.65;;;4.82;;
53269;SDS011;39159;45.634;9.420;2023-05-16T03:23:42;4.95;;;4.40;;
53269;SDS011;39159;45.634;9.420;2023-05-16T03:26:07;6.53;;;4.82;;
53269;SDS011;39159;45.634;9.420;2023-05-16T03:28:33;7.90;;;4.50;;
53269;SDS011;39159;45.634;9.420;2023-05-16T03:30:58;6.28;;;4.32;;
53269;SDS011;39159;45.634;9.420;2023-05-16T03:33:24;6.53;;;4.85;;
53269;SDS011;39159;45.634;9.420;2023-05-16T03:35:50;5.97;;;4.50;;
53269;SDS011;39159;45.634;9.420;2023-05-16T03:38:16;5.45;;;4.53;;
53269;SDS011;39159;45.634;9.420;2023-05-16T03:40:42;6.45;;;4.45;;
53269;SDS011;39159;45.634;9.420;2023-05-16T03:43:07;5.53;;;4.03;;
53269;SDS011;39159;45.634;9.420;2023-05-16T03:45:33;8.93;;;4.60;;
53269;SDS011;39159;45.634;9.420;2023-05-16T03:47:58;5.05;;;3.90;;
53269;SDS011;39159;45.634;9.420;2023-05-16T03:50:24;6.43;;;3.58;;
53269;SDS011;39159;45.634;9.420;2023-05-16T03:52:50;6.95;;;3.47;;
53269;SDS011;39159;45.634;9.420;2023-05-16T03:55:16;4.32;;;3.60;;
53269;SDS011;39159;45.634;9.420;2023-05-16T03:57:42;5.70;;;3.40;;
53269;SDS011;39159;45.634;9.420;2023-05-16T04:00:08;4.13;;;2.85;;
53269;SDS011;39159;45.634;9.420;2023-05-16T04:02:35;4.07;;;2.97;;
53269;SDS011;39159;45.634;9.420;2023-05-16T04:05:01;4.43;;;2.72;;
53269;SDS011;39159;45.634;9.420;2023-05-16T04:07:27;5.20;;;2.60;;
53269;SDS011;39159;45.634;9.420;2023-05-16T04:09:53;2.97;;;2.53;;
53269;SDS011;39159;45.634;9.420;2023-05-16T04:12:19;3.25;;;2.10;;
53269;SDS011;39159;45.634;9.420;2023-05-16T04:14:45;2.85;;;2.10;;
53269;SDS011;39159;45.634;9.420;2023-05-16T04:17:11;5.50;;;2.17;;
53269;SDS011;39159;45.634;9.420;2023-05-16T04:19:36;3.22;;;2.33;;
53269;SDS011;39159;45.634;9.420;2023-05-16T04:22:02;2.13;;;1.85;;
53269;SDS011;39159;45.634;9.420;2023-05-16T04:24:27;3.15;;;1.77;;
53269;SDS011;39159;45.634;9.420;2023-05-16T04:26:53;3.65;;;1.75;;
53269;SDS011;39159;45.634;9.420;2023-05-16T04:29:19;4.03;;;1.42;;
53269;SDS011;39159;45.634;9.420;2023-05-16T04:31:46;2.58;;;1.35;;
53269;SDS011;39159;45.634;9.420;2023-05-16T04:34:11;1.85;;;1.30;;
53269;SDS011;39159;45.634;9.420;2023-05-16T04:36:37;2.28;;;1.50;;
53269;SDS011;39159;45.634;9.420;2023-05-16T04:39:03;2.78;;;1.20;;
53269;SDS011;39159;45.634;9.420;2023-05-16T04:41:28;3.08;;;1.42;;
53269;SDS011;39159;45.634;9.420;2023-05-16T04:43:54;2.92;;;1.60;;
53269;SDS011;39159;45.634;9.420;2023-05-16T04:46:20;2.90;;;1.05;;
53269;SDS011;39159;45.634;9.420;2023-05-16T04:48:45;2.65;;;1.48;;
53269;SDS011;39159;45.634;9.420;2023-05-16T04:51:11;1.77;;;1.20;;
53269;SDS011;39159;45.634;9.420;2023-05-16T04:53:36;1.70;;;1.30;;
53269;SDS011;39159;45.634;9.420;2023-05-16T04:56:02;1.40;;;1.30;;
53269;SDS011;39159;45.634;9.420;2023-05-16T04:58:29;2.92;;;1.40;;
53269;SDS011;39159;45.634;9.420;2023-05-16T05:00:55;2.85;;;1.55;;
53269;SDS011;39159;45.634;9.420;2023-05-16T05:03:21;2.05;;;1.42;;
53269;SDS011;39159;45.634;9.420;2023-05-16T05:05:47;5.88;;;1.48;;
53269;SDS011;39159;45.634;9.420;2023-05-16T05:08:12;4.10;;;1.70;;
53269;SDS011;39159;45.634;9.420;2023-05-16T05:10:38;6.20;;;1.85;;
53269;SDS011;39159;45.634;9.420;2023-05-16T05:13:04;4.70;;;2.13;;
53269;SDS011;39159;45.634;9.420;2023-05-16T05:15:29;3.80;;;2.13;;
53269;SDS011;39159;45.634;9.420;2023-05-16T05:17:55;2.15;;;1.67;;
53269;SDS011;39159;45.634;9.420;2023-05-16T05:20:20;2.83;;;1.70;;
53269;SDS011;39159;45.634;9.420;2023-05-16T05:22:46;1.88;;;1.40;;
53269;SDS011;39159;45.634;9.420;2023-05-16T05:25:11;2.28;;;1.65;;
53269;SDS011;39159;45.634;9.420;2023-05-16T05:27:37;2.38;;;1.60;;
53269;SDS011;39159;45.634;9.420;2023-05-16T05:30:02;2.90;;;1.90;;
53269;SDS011;39159;45.634;9.420;2023-05-16T05:32:28;5.50;;;1.98;;
53269;SDS011;39159;45.634;9.420;2023-05-16T05:34:53;3.42;;;1.73;;
53269;SDS011;39159;45.634;9.420;2023-05-16T05:37:19;3.83;;;1.70;;
53269;SDS011;39159;45.634;9.420;2023-05-16T05:39:45;2.90;;;1.15;;
53269;SDS011;39159;45.634;9.420;2023-05-16T05:42:10;5.25;;;1.08;;
53269;SDS011;39159;45.634;9.420;2023-05-16T05:44:36;1.00;;;0.90;;
53269;SDS011;39159;45.634;9.420;2023-05-16T05:47:02;1.60;;;1.00;;
53269;SDS011;39159;45.634;9.420;2023-05-16T05:49:28;1.08;;;0.80;;
53269;SDS011;39159;45.634;9.420;2023-05-16T05:51:55;0.85;;;0.80;;
53269;SDS011;39159;45.634;9.420;2023-05-16T05:54:21;1.40;;;1.02;;
53269;SDS011;39159;45.634;9.420;2023-05-16T05:56:47;1.73;;;1.08;;
53269;SDS011;39159;45.634;9.420;2023-05-16T05:59:13;2.80;;;1.10;;
53269;SDS011;39159;45.634;9.420;2023-05-16T06:01:38;2.38;;;1.30;;
53269;SDS011;39159;45.634;9.420;2023-05-16T06:04:04;4.65;;;1.25;;
53269;SDS011;39159;45.634;9.420;2023-05-16T06:06:30;3.28;;;1.45;;
53269;SDS011;39159;45.634;9.420;2023-05-16T06:08:56;4.03;;;1.75;;
53269;SDS011;39159;45.634;9.420;2023-05-16T06:11:21;3.10;;;1.50;;
53269;SDS011;39159;45.634;9.420;2023-05-16T06:13:47;5.90;;;1.83;;
53269;SDS011;39159;45.634;9.420;2023-05-16T06:16:12;2.22;;;1.42;;
53269;SDS011;39159;45.634;9.420;2023-05-16T06:18:38;6.40;;;2.78;;
53269;SDS011;39159;45.634;9.420;2023-05-16T06:21:04;3.08;;;2.15;;
53269;SDS011;39159;45.634;9.420;2023-05-16T06:23:30;3.22;;;2.25;;
53269;SDS011;39159;45.634;9.420;2023-05-16T06:25:55;2.95;;;1.77;;
53269;SDS011;39159;45.634;9.420;2023-05-16T06:28:21;2.90;;;2.05;;
53269;SDS011;39159;45.634;9.420;2023-05-16T06:30:48;5.45;;;2.17;;
53269;SDS011;39159;45.634;9.420;2023-05-16T06:33:15;3.65;;;2.00;;
53269;SDS011;39159;45.634;9.420;2023-05-16T06:35:41;5.03;;;2.15;;
53269;SDS011;39159;45.634;9.420;2023-05-16T06:38:07;4.50;;;1.80;;
53269;SDS011;39159;45.634;9.420;2023-05-16T06:40:32;5.88;;;1.73;;
53269;SDS011;39159;45.634;9.420;2023-05-16T06:42:58;5.15;;;2.00;;
53269;SDS011;39159;45.634;9.420;2023-05-16T06:45:23;6.90;;;1.80;;
53269;SDS011;39159;45.634;9.420;2023-05-16T06:47:49;3.33;;;1.80;;
53269;SDS011;39159;45.634;9.420;2023-05-16T06:50:14;4.65;;;1.60;;
53269;SDS011;39159;45.634;9.420;2023-05-16T06:52:40;2.70;;;1.70;;
53269;SDS011;39159;45.634;9.420;2023-05-16T06:55:06;3.75;;;2.30;;
53269;SDS011;39159;45.634;9.420;2023-05-16T06:57:32;4.18;;;1.80;;
53269;SDS011;39159;45.634;9.420;2023-05-16T06:59:57;4.28;;;1.67;;
53269;SDS011;39159;45.634;9.420;2023-05-16T07:02:22;3.33;;;1.73;;
53269;SDS011;39159;45.634;9.420;2023-05-16T07:04:48;2.40;;;1.88;;
53269;SDS011;39159;45.634;9.420;2023-05-16T07:07:13;6.15;;;2.20;;
53269;SDS011;39159;45.634;9.420;2023-05-16T07:09:40;3.75;;;2.25;;
53269;SDS011;39159;45.634;9.420;2023-05-16T07:12:05;2.95;;;2.08;;
53269;SDS011;39159;45.634;9.420;2023-05-16T07:14:31;9.10;;;2.70;;
53269;SDS011;39159;45.634;9.420;2023-05-16T07:16:56;5.53;;;2.63;;
53269;SDS011;39159;45.634;9.420;2023-05-16T07:19:22;5.22;;;2.90;;
53269;SDS011;39159;45.634;9.420;2023-05-16T07:21:47;4.90;;;2.42;;
53269;SDS011;39159;45.634;9.420;2023-05-16T07:24:13;6.15;;;3.38;;
53269;SDS011;39159;45.634;9.420;2023-05-16T07:26:38;3.75;;;2.63;;
53269;SDS011;39159;45.634;9.420;2023-05-16T07:29:04;6.93;;;3.70;;
53269;SDS011;39159;45.634;9.420;2023-05-16T07:31:29;5.57;;;3.88;;
53269;SDS011;39159;45.634;9.420;2023-05-16T07:33:55;6.22;;;3.65;;
53269;SDS011;39159;45.634;9.420;2023-05-16T07:36:21;6.70;;;3.72;;
53269;SDS011;39159;45.634;9.420;2023-05-16T07:38:46;8.20;;;4.03;;
53269;SDS011;39159;45.634;9.420;2023-05-16T07:41:12;7.32;;;3.80;;
53269;SDS011;39159;45.634;9.420;2023-05-16T07:43:37;8.52;;;3.97;;
53269;SDS011;39159;45.634;9.420;2023-05-16T07:46:03;5.53;;;3.70;;
53269;SDS011;39159;45.634;9.420;2023-05-16T07:48:29;8.95;;;3.72;;
53269;SDS011;39159;45.634;9.420;2023-05-16T07:50:54;6.93;;;4.15;;
53269;SDS011;39159;45.634;9.420;2023-05-16T07:53:20;5.93;;;4.07;;
53269;SDS011;39159;45.634;9.420;2023-05-16T07:55:46;7.88;;;4.53;;
53269;SDS011;39159;45.634;9.420;2023-05-16T07:58:12;8.25;;;5.20;;
53269;SDS011;39159;45.634;9.420;2023-05-16T08:00:37;9.15;;;5.15;;
53269;SDS011;39159;45.634;9.420;2023-05-16T08:03:03;7.45;;;5.35;;
53269;SDS011;39159;45.634;9.420;2023-05-16T08:05:29;7.03;;;5.00;;
53269;SDS011;39159;45.634;9.420;2023-05-16T08:07:54;7.90;;;5.70;;
53269;SDS011;39159;45.634;9.420;2023-05-16T08:10:20;7.65;;;5.70;;
53269;SDS011;39159;45.634;9.420;2023-05-16T08:12:53;7.05;;;6.07;;
53269;SDS011;39159;45.634;9.420;2023-05-16T08:15:19;8.60;;;5.63;;
53269;SDS011;39159;45.634;9.420;2023-05-16T08:17:45;8.30;;;6.53;;
53269;SDS011;39159;45.634;9.420;2023-05-16T08:20:11;7.68;;;6.20;;
53269;SDS011;39159;45.634;9.420;2023-05-16T08:22:36;13.05;;;6.43;;
53269;SDS011;39159;45.634;9.420;2023-05-16T08:25:02;9.95;;;6.35;;
53269;SDS011;39159;45.634;9.420;2023-05-16T08:27:28;6.85;;;5.68;;
53269;SDS011;39159;45.634;9.420;2023-05-16T08:29:53;13.82;;;5.97;;
53269;SDS011;39159;45.634;9.420;2023-05-16T08:32:20;9.55;;;6.13;;
53269;SDS011;39159;45.634;9.420;2023-05-16T08:34:46;6.88;;;6.18;;
53269;SDS011;39159;45.634;9.420;2023-05-16T08:37:11;8.73;;;5.88;;
53269;SDS011;39159;45.634;9.420;2023-05-16T08:39:39;8.85;;;5.65;;
53269;SDS011;39159;45.634;9.420;2023-05-16T08:42:05;8.30;;;5.85;;
53269;SDS011;39159;45.634;9.420;2023-05-16T08:44:31;6.75;;;5.82;;
53269;SDS011;39159;45.634;9.420;2023-05-16T08:46:58;8.68;;;5.53;;
53269;SDS011;39159;45.634;9.420;2023-05-16T08:49:29;10.18;;;6.95;;
53269;SDS011;39159;45.634;9.420;2023-05-16T08:51:56;8.95;;;6.95;;
53269;SDS011;39159;45.634;9.420;2023-05-16T08:54:24;10.73;;;7.18;;
53269;SDS011;39159;45.634;9.420;2023-05-16T08:56:51;14.45;;;6.85;;
53269;SDS011;39159;45.634;9.420;2023-05-16T08:59:17;9.68;;;6.85;;
53269;SDS011;39159;45.634;9.420;2023-05-16T09:01:43;9.48;;;5.97;;
53269;SDS011;39159;45.634;9.420;2023-05-16T09:04:08;9.18;;;6.63;;
53269;SDS011;39159;45.634;9.420;2023-05-16T09:06:37;9.38;;;7.13;;
53269;SDS011;39159;45.634;9.420;2023-05-16T09:09:03;9.38;;;6.47;;
53269;SDS011;39159;45.634;9.420;2023-05-16T09:11:32;10.60;;;6.47;;
53269;SDS011;39159;45.634;9.420;2023-05-16T09:13:58;9.57;;;6.75;;
53269;SDS011;39159;45.634;9.420;2023-05-16T09:16:23;9.05;;;6.95;;
53269;SDS011;39159;45.634;9.420;2023-05-16T09:18:53;12.68;;;7.47;;
53269;SDS011;39159;45.634;9.420;2023-05-16T09:21:20;8.85;;;7.10;;
53269;SDS011;39159;45.634;9.420;2023-05-16T09:23:47;8.75;;;6.10;;
53269;SDS011;39159;45.634;9.420;2023-05-16T09:26:13;13.95;;;7.80;;
53269;SDS011;39159;45.634;9.420;2023-05-16T09:28:39;8.45;;;6.40;;
53269;SDS011;39159;45.634;9.420;2023-05-16T09:31:21;10.45;;;7.80;;
53269;SDS011;39159;45.634;9.420;2023-05-16T09:33:50;11.38;;;7.80;;
53269;SDS011;39159;45.634;9.420;2023-05-16T09:36:20;9.82;;;7.65;;
53269;SDS011;39159;45.634;9.420;2023-05-16T09:38:46;15.05;;;8.90;;
53269;SDS011;39159;45.634;9.420;2023-05-16T09:41:11;13.30;;;8.43;;
53269;SDS011;39159;45.634;9.420;2023-05-16T09:43:38;12.07;;;7.78;;
53269;SDS011;39159;45.634;9.420;2023-05-16T09:46:04;12.18;;;7.90;;
53269;SDS011;39159;45.634;9.420;2023-05-16T09:48:31;10.55;;;8.50;;
53269;SDS011;39159;45.634;9.420;2023-05-16T09:50:57;10.52;;;7.97;;
53269;SDS011;39159;45.634;9.420;2023-05-16T09:53:28;8.75;;;7.85;;
53269;SDS011;39159;45.634;9.420;2023-05-16T09:55:59;9.95;;;6.97;;
53269;SDS011;39159;45.634;9.420;2023-05-16T09:58:35;9.45;;;7.07;;
53269;SDS011;39159;45.634;9.420;2023-05-16T10:01:05;9.88;;;6.72;;
53269;SDS011;39159;45.634;9.420;2023-05-16T10:03:35;10.10;;;7.45;;
53269;SDS011;39159;45.634;9.420;2023-05-16T10:06:02;10.32;;;7.88;;
53269;SDS011;39159;45.634;9.420;2023-05-16T10:08:30;10.32;;;8.25;;
53269;SDS011;39159;45.634;9.420;2023-05-16T10:11:00;13.93;;;8.73;;
53269;SDS011;39159;45.634;9.420;2023-05-16T10:13:29;13.40;;;8.73;;
53269;SDS011;39159;45.634;9.420;2023-05-16T10:15:57;11.25;;;7.55;;
53269;SDS011;39159;45.634;9.420;2023-05-16T10:18:30;12.82;;;9.27;;
53269;SDS011;39159;45.634;9.420;2023-05-16T10:21:03;12.93;;;8.70;;
53269;SDS011;39159;45.634;9.420;2023-05-16T10:23:32;11.65;;;9.27;;
53269;SDS011;39159;45.634;9.420;2023-05-16T10:26:00;12.45;;;9.68;;
53269;SDS011;39159;45.634;9.420;2023-05-16T10:28:27;14.52;;;9.25;;
53269;SDS011;39159;45.634;9.420;2023-05-16T10:30:53;13.55;;;9.27;;
53269;SDS011;39159;45.634;9.420;2023-05-16T10:33:20;12.95;;;8.23;;
53269;SDS011;39159;45.634;9.420;2023-05-16T10:35:46;11.25;;;8.15;;
53269;SDS011;39159;45.634;9.420;2023-05-16T10:38:12;13.75;;;7.20;;
53269;SDS011;39159;45.634;9.420;2023-05-16T10:40:40;8.40;;;6.00;;
53269;SDS011;39159;45.634;9.420;2023-05-16T10:43:07;6.97;;;5.68;;
53269;SDS011;39159;45.634;9.420;2023-05-16T10:45:33;7.93;;;5.40;;
53269;SDS011;39159;45.634;9.420;2023-05-16T10:48:03;9.27;;;6.07;;
53269;SDS011;39159;45.634;9.420;2023-05-16T10:53:13;7.95;;;5.68;;
53269;SDS011;39159;45.634;9.420;2023-05-16T10:56:06;10.00;;;5.50;;
53269;SDS011;39159;45.634;9.420;2023-05-16T11:01:17;9.02;;;5.35;;
53269;SDS011;39159;45.634;9.420;2023-05-16T11:06:25;7.87;;;5.70;;
53269;SDS011;39159;45.634;9.420;2023-05-16T11:11:39;12.65;;;6.38;;
53269;SDS011;39159;45.634;9.420;2023-05-16T11:14:06;9.00;;;4.88;;
53269;SDS011;39159;45.634;9.420;2023-05-16T11:16:33;8.95;;;5.07;;
53269;SDS011;39159;45.634;9.420;2023-05-16T11:19:03;7.32;;;4.65;;
53269;SDS011;39159;45.634;9.420;2023-05-16T11:24:37;8.70;;;5.38;;
53269;SDS011;39159;45.634;9.420;2023-05-16T11:27:03;7.43;;;4.95;;
53269;SDS011;39159;45.634;9.420;2023-05-16T11:29:34;8.23;;;4.80;;
53269;SDS011;39159;45.634;9.420;2023-05-16T11:32:00;9.13;;;5.35;;
53269;SDS011;39159;45.634;9.420;2023-05-16T11:34:29;8.55;;;4.80;;
53269;SDS011;39159;45.634;9.420;2023-05-16T11:36:55;7.65;;;4.68;;
53269;SDS011;39159;45.634;9.420;2023-05-16T11:39:21;6.93;;;4.90;;
53269;SDS011;39159;45.634;9.420;2023-05-16T11:41:50;7.60;;;5.32;;
53269;SDS011;39159;45.634;9.420;2023-05-16T11:44:17;12.55;;;5.65;;
53269;SDS011;39159;45.634;9.420;2023-05-16T11:46:42;13.95;;;5.93;;
53269;SDS011;39159;45.634;9.420;2023-05-16T11:49:08;12.15;;;8.20;;
53269;SDS011;39159;45.634;9.420;2023-05-16T11:51:38;14.43;;;7.50;;
53269;SDS011;39159;45.634;9.420;2023-05-16T11:54:05;10.55;;;6.95;;
53269;SDS011;39159;45.634;9.420;2023-05-16T11:56:31;11.70;;;6.35;;
53269;SDS011;39159;45.634;9.420;2023-05-16T11:58:59;9.05;;;5.80;;
53269;SDS011;39159;45.634;9.420;2023-05-16T12:01:30;8.50;;;5.47;;
53269;SDS011;39159;45.634;9.420;2023-05-16T12:03:58;8.30;;;5.90;;
53269;SDS011;39159;45.634;9.420;2023-05-16T12:06:23;7.72;;;5.10;;
53269;SDS011;39159;45.634;9.420;2023-05-16T12:08:50;8.02;;;5.07;;
53269;SDS011;39159;45.634;9.420;2023-05-16T12:11:16;5.13;;;3.75;;
53269;SDS011;39159;45.634;9.420;2023-05-16T12:13:42;6.75;;;5.30;;
53269;SDS011;39159;45.634;9.420;2023-05-16T12:16:08;6.40;;;5.35;;
53269;SDS011;39159;45.634;9.420;2023-05-16T12:18:36;9.13;;;6.03;;
53269;SDS011;39159;45.634;9.420;2023-05-16T12:21:05;6.45;;;5.15;;
53269;SDS011;39159;45.634;9.420;2023-05-16T12:23:33;7.60;;;5.25;;
53269;SDS011;39159;45.634;9.420;2023-05-16T12:25:59;6.03;;;4.60;;
53269;SDS011;39159;45.634;9.420;2023-05-16T12:28:33;10.82;;;5.90;;
53269;SDS011;39159;45.634;9.420;2023-05-16T12:31:01;7.53;;;5.03;;
53269;SDS011;39159;45.634;9.420;2023-05-16T12:33:27;7.45;;;4.20;;
53269;SDS011;39159;45.634;9.420;2023-05-16T12:35:52;7.20;;;4.80;;
53269;SDS011;39159;45.634;9.420;2023-05-16T12:38:18;7.10;;;5.00;;
53269;SDS011;39159;45.634;9.420;2023-05-16T12:40:44;6.13;;;4.93;;
53269;SDS011;39159;45.634;9.420;2023-05-16T12:43:19;8.38;;;5.60;;
53269;SDS011;39159;45.634;9.420;2023-05-16T12:45:52;8.80;;;5.72;;
53269;SDS011;39159;45.634;9.420;2023-05-16T12:48:18;6.65;;;5.28;;
53269;SDS011;39159;45.634;9.420;2023-05-16T12:50:44;11.73;;;5.72;;
53269;SDS011;39159;45.634;9.420;2023-05-16T12:53:13;8.93;;;5.82;;
53269;SDS011;39159;45.634;9.420;2023-05-16T12:55:41;8.05;;;6.65;;
53269;SDS011;39159;45.634;9.420;2023-05-16T12:58:07;9.45;;;6.10;;
53269;SDS011;39159;45.634;9.420;2023-05-16T13:00:34;9.10;;;5.45;;
53269;SDS011;39159;45.634;9.420;2023-05-16T13:03:00;7.75;;;5.60;;
53269;SDS011;39159;45.634;9.420;2023-05-16T13:05:27;8.88;;;6.22;;
53269;SDS011;39159;45.634;9.420;2023-05-16T13:07:52;10.30;;;6.05;;
53269;SDS011;39159;45.634;9.420;2023-05-16T13:10:18;8.13;;;5.65;;
53269;SDS011;39159;45.634;9.420;2023-05-16T13:12:44;9.85;;;6.28;;
53269;SDS011;39159;45.634;9.420;2023-05-16T13:15:10;10.20;;;6.97;;
53269;SDS011;39159;45.634;9.420;2023-05-16T13:17:37;8.05;;;6.28;;
53269;SDS011;39159;45.634;9.420;2023-05-16T13:20:03;9.75;;;6.03;;
53269;SDS011;39159;45.634;9.420;2023-05-16T13:22:33;10.20;;;6.75;;
53269;SDS011;39159;45.634;9.420;2023-05-16T13:25:02;14.90;;;6.22;;
53269;SDS011;39159;45.634;9.420;2023-05-16T13:27:29;8.07;;;5.70;;
53269;SDS011;39159;45.634;9.420;2023-05-16T13:29:55;9.15;;;5.63;;
53269;SDS011;39159;45.634;9.420;2023-05-16T13:32:20;11.32;;;6.25;;
53269;SDS011;39159;45.634;9.420;2023-05-16T13:34:46;8.30;;;5.97;;
53269;SDS011;39159;45.634;9.420;2023-05-16T13:37:11;7.90;;;5.40;;
53269;SDS011;39159;45.634;9.420;2023-05-16T13:39:37;7.82;;;5.90;;
53269;SDS011;39159;45.634;9.420;2023-05-16T13:42:02;9.68;;;5.85;;
53269;SDS011;39159;45.634;9.420;2023-05-16T13:44:28;9.50;;;6.05;;
53269;SDS011;39159;45.634;9.420;2023-05-16T13:46:54;6.45;;;5.18;;
53269;SDS011;39159;45.634;9.420;2023-05-16T13:49:21;8.10;;;5.78;;
53269;SDS011;39159;45.634;9.420;2023-05-16T13:51:47;7.90;;;6.30;;
53269;SDS011;39159;45.634;9.420;2023-05-16T13:54:13;8.55;;;6.40;;
53269;SDS011;39159;45.634;9.420;2023-05-16T13:56:38;9.43;;;5.47;;
53269;SDS011;39159;45.634;9.420;2023-05-16T13:59:04;7.90;;;6.00;;
53269;SDS011;39159;45.634;9.420;2023-05-16T14:01:29;7.82;;;5.75;;
53269;SDS011;39159;45.634;9.420;2023-05-16T14:03:55;7.28;;;4.95;;
53269;SDS011;39159;45.634;9.420;2023-05-16T14:06:20;6.28;;;5.13;;
53269;SDS011;39159;45.634;9.420;2023-05-16T14:08:46;7.57;;;5.07;;
53269;SDS011;39159;45.634;9.420;2023-05-16T14:11:11;7.88;;;5.20;;
53269;SDS011;39159;45.634;9.420;2023-05-16T14:13:37;6.20;;;4.60;;
53269;SDS011;39159;45.634;9.420;2023-05-16T14:16:04;9.43;;;5.72;;
53269;SDS011;39159;45.634;9.420;2023-05-16T14:18:31;6.18;;;5.10;;
53269;SDS011;39159;45.634;9.420;2023-05-16T14:20:57;9.10;;;5.53;;
53269;SDS011;39159;45.634;9.420;2023-05-16T14:23:22;7.68;;;5.30;;
53269;SDS011;39159;45.634;9.420;2023-05-16T14:25:48;8.27;;;6.15;;
53269;SDS011;39159;45.634;9.420;2023-05-16T14:28:13;9.18;;;5.95;;
53269;SDS011;39159;45.634;9.420;2023-05-16T14:30:39;7.47;;;5.20;;
53269;SDS011;39159;45.634;9.420;2023-05-16T14:33:04;10.68;;;5.40;;
53269;SDS011;39159;45.634;9.420;2023-05-16T14:35:31;7.68;;;6.28;;
53269;SDS011;39159;45.634;9.420;2023-05-16T14:37:56;7.03;;;6.05;;
53269;SDS011;39159;45.634;9.420;2023-05-16T14:40:22;9.88;;;6.78;;
53269;SDS011;39159;45.634;9.420;2023-05-16T14:42:48;7.93;;;6.22;;
53269;SDS011;39159;45.634;9.420;2023-05-16T14:45:14;9.75;;;5.95;;
53269;SDS011;39159;45.634;9.420;2023-05-16T14:47:40;6.07;;;5.43;;
53269;SDS011;39159;45.634;9.420;2023-05-16T14:50:06;8.32;;;6.25;;
53269;SDS011;39159;45.634;9.420;2023-05-16T14:52:32;11.20;;;6.78;;
53269;SDS011;39159;45.634;9.420;2023-05-16T14:54:58;7.43;;;6.43;;
53269;SDS011;39159;45.634;9.420;2023-05-16T14:57:23;8.50;;;5.88;;
53269;SDS011;39159;45.634;9.420;2023-05-16T14:59:48;6.30;;;5.25;;
53269;SDS011;39159;45.634;9.420;2023-05-16T15:02:14;7.03;;;5.03;;
53269;SDS011;39159;45.634;9.420;2023-05-16T15:04:40;8.57;;;5.45;;
53269;SDS011;39159;45.634;9.420;2023-05-16T15:07:05;8.27;;;5.47;;
53269;SDS011;39159;45.634;9.420;2023-05-16T15:09:31;7.03;;;5.60;;